Etusivu
METAR-TAF:

METAR-TAF

Lentoasemat :

Maracaibo, Venezuela

Leveyspiiri: 10-34N, Pituuspiiri: 071-44W, korkeus merenpinnasta: 66 m

Tämänhetkinen sää

Tämä raportti tehtiin 13 tuntia ja 33 minuuttia sitten, kello 18.02 UTC
Lämpötila
Ilmanpaine

METAR: SVMC 011802Z AUTO NIL

Aika: 03:35 (07:35 UTC)

Sääennuste

Tämä raportti tehtiin 3 tuntia ja 35 minuuttia sitten, kello 04.00 UTC
Ennuste voimassa 02. päivästä klo 06 UTC - 03. päivään klo 06 UTC
Tuuli 5 kn lännestä
Näkyvyys: 9000 m
Hajonneita pilviä 1600 ft:n korkeudessa
tihkusadetta
Ajoittain
02. päivästä klo 06 UTC - 02. päivään klo 10 UTC
Tuuli 4 kn etelästä
Näkyvyys: 9000 m
Hajonneita pilviä 1600 ft:n korkeudessa
heikkoa tihkusadetta

TAF: SVMC 020400Z 0206/0306 27005KT 9000 DZ BKN016 TX30/19Z TN22/08Z TEMPO 0206/0210 18004KT 9000 -DZ BKN016

Säähavainnot ja -ennusteet yli 4000 lentoasemalta (METAR- ja TAF-raportit).

Käytössä olevat sääasemat on merkitty karttaan keltaisilla ja punaisilla pisteillä.

Aseta hiiri pisteen päälle nähdäksesi sääaseman nimen.

Klikkaa sitten nähdäksesi säähavainnot ja -ennusteet.

Kartan vaihtaminen: klikkaa mustalla rastilla varustettuja vihreitä pisteitä, niin voit zoomata sisään; viivalla varustettua vihreää pistettä, niin voit zoomata ulos tai vihreitä nuolia, niin pääset viereisille kartoille.


METAR-TAF: